Погода Жепичнана неделю

Куявско-Поморское воеводство, Польша

19 - 25 июля
  • 19июля
    Сегодня
    +11°
    +24°
    Облачно с прояснениями
    ВремяПогодаТемператураВлажностьДавлениеВетер, м/сВероятность осадков
    02:00Ясно и безоблачно+14°C93 %756 мм2.1 м/с2 %
    05:00Ясно и безоблачно+13°C93 %756 мм2.2 м/с2 %
    08:00Ясно и безоблачно+17°C78 %756 мм2.3 м/с2 %
    11:00Небольшая облачность+21°C60 %756 мм4.4 м/с2 %
    14:00Облачно с прояснениями+23°C50 %755 мм3.9 м/с2 %
    17:00Облачно с прояснениями+23°C49 %754 мм3.3 м/с2 %
    20:00Ясно и безоблачно+22°C68 %753 мм1.7 м/с2 %
    23:00Ясно и безоблачно+15°C91 %753 мм2.3 м/с2 %
  • 20июля
    Суббота
    +14°
    +26°
    Ясно и безоблачно
    ВремяПогодаТемператураВлажностьДавлениеВетер, м/сВероятность осадков
    02:00Ясно и безоблачно+13°C98 %752 мм2.3 м/с2 %
    05:00Пасмурно, сплошная облачность+11°C100 %751 мм1.4 м/с2 %
    08:00Ясно и безоблачно+18°C79 %751 мм0.8 м/с2 %
    11:00Ясно и безоблачно+23°C58 %751 мм1.4 м/с2 %
    14:00Ясно и безоблачно+25°C50 %750 мм1.5 м/с2 %
    17:00Ясно и безоблачно+25°C49 %749 мм1.6 м/с2 %
    20:00Практически безоблачно+23°C67 %748 мм1.9 м/с2 %
    23:00Ясно и безоблачно+18°C81 %748 мм2.6 м/с2 %
  • 21июля
    Воскресенье
    +15°
    +28°
    Небольшая облачность
    ВремяПогодаТемператураВлажностьДавлениеВетер, м/сВероятность осадков
    02:00Ясно и безоблачно+15°C94 %748 мм2.2 м/с2 %
    05:00Ясно и безоблачно+14°C98 %747 мм1.6 м/с2 %
    08:00Ясно и безоблачно+20°C81 %748 мм1.3 м/с2 %
    11:00Ясно и безоблачно+24°C56 %747 мм1.7 м/с2 %
    14:00Небольшая облачность+27°C46 %747 мм0.7 м/с4 %
    17:00Облачно с прояснениями+26°C47 %746 мм1.9 м/с6 %
    20:00Ясно и безоблачно+24°C60 %746 мм3.4 м/с2 %
    23:00Облачно с прояснениями+18°C74 %747 мм3.3 м/с2 %
  • 22июля
    Понедельник
    +15°
    +29°
    Облачно с прояснениями
    ВремяПогодаТемператураВлажностьДавлениеВетер, м/сВероятность осадков
    02:00Ясно и безоблачно+17°C87 %747 мм2.4 м/с2 %
    05:00Ясно и безоблачно+15°C92 %746 мм1.9 м/с2 %
    08:00Небольшая облачность+20°C73 %747 мм2.2 м/с4 %
    11:00Облачно с прояснениями+26°C53 %747 мм1.5 м/с13 %
    14:00Облачно с прояснениями+29°C43 %747 мм1.6 м/с40 %
    17:00Пасмурно, небольшой дождь+26°C49 %747 мм3.4 м/с50 %
    20:00Пасмурно, дождь+20°C91 %748 мм1.6 м/с40 %
    23:00Пасмурно, ливень+18°C95 %749 мм3.8 м/с33 %
  • 23июля
    Вторник
    +12°
    +22°
    Практически безоблачно
    ВремяПогодаТемператураВлажностьДавлениеВетер, м/сВероятность осадков
    02:00Пасмурно, ливень+17°C95 %750 мм3.6 м/с26 %
    05:00Облачно с прояснениями+16°C95 %750 мм3.3 м/с20 %
    08:00Ясно и безоблачно+18°C84 %751 мм3.9 м/с26 %
    11:00Практически безоблачно+19°C63 %751 мм3.3 м/с38 %
    14:00Практически безоблачно+22°C48 %751 мм3.4 м/с50 %
    17:00Ясно и безоблачно+22°C48 %751 мм3.0 м/с43 %
    20:00Ясно и безоблачно+20°C63 %751 мм1.9 м/с31 %
    23:00Ясно и безоблачно+16°C81 %751 мм2.1 м/с14 %
Мы используем cookies
Соглашаюсь